Time;durP1;ratioP1;P1;durP2;ratioP2;P2;SDS_P1;SDS_P2;PMS_P1;PMS_P2;Temp;Humidity;BMP_temperature;BMP_pressure;BME280_temperature;BME280_humidity;BME280_pressure;Samples;Min_cycle;Max_cycle;Signal;HPM_P1;HPM_P2
2023/09/23 00:01:39;;;;;;;6.80;3.40;;;13.90;99.90;;;;;;5050240;28;20539;-50
2023/09/23 00:04:06;;;;;;;4.10;3.60;;;13.90;99.90;;;;;;5049418;28;20446;-50
2023/09/23 00:06:33;;;;;;;3.07;2.87;;;14.00;99.90;;;;;;5046938;28;20856;-50
2023/09/23 00:09:04;;;;;;;6.83;3.67;;;13.90;99.90;;;;;;5046477;28;20559;-52
2023/09/23 00:11:31;;;;;;;4.90;3.30;;;13.90;99.90;;;;;;5046949;28;20539;-50
2023/09/23 00:13:57;;;;;;;3.93;3.40;;;13.90;99.90;;;;;;5049510;28;20462;-50
2023/09/23 00:16:24;;;;;;;3.87;3.60;;;13.80;99.90;;;;;;5049258;28;20482;-50
2023/09/23 00:18:51;;;;;;;3.70;3.10;;;13.90;99.90;;;;;;5050121;28;20457;-49
2023/09/23 00:21:18;;;;;;;5.33;3.27;;;13.80;99.90;;;;;;5051246;28;20454;-50
2023/09/23 00:23:46;;;;;;;3.73;3.43;;;13.80;99.90;;;;;;5050463;28;20458;-51
2023/09/23 00:26:17;;;;;;;3.20;2.90;;;13.80;99.90;;;;;;5045848;28;20485;-50
2023/09/23 00:28:46;;;;;;;5.10;3.37;;;13.80;99.90;;;;;;5050998;28;20852;-50
2023/09/23 00:31:14;;;;;;;4.17;3.40;;;13.80;99.90;;;;;;5046803;28;20629;-50
2023/09/23 00:33:41;;;;;;;3.50;3.30;;;13.80;99.90;;;;;;5051068;28;20473;-51
2023/09/23 00:36:09;;;;;;;9.97;3.60;;;13.80;99.90;;;;;;5050205;28;20559;-50
2023/09/23 00:38:36;;;;;;;5.43;3.63;;;13.80;99.90;;;;;;5049715;28;20468;-50
2023/09/23 00:41:04;;;;;;;3.17;2.97;;;13.80;99.90;;;;;;5050419;28;20488;-51
2023/09/23 00:43:33;;;;;;;7.67;3.50;;;13.70;99.90;;;;;;5048881;28;20462;-50
2023/09/23 00:46:03;;;;;;;3.20;2.90;;;13.70;99.90;;;;;;5048085;28;20569;-51
2023/09/23 00:48:33;;;;;;;4.07;3.67;;;13.70;99.90;;;;;;5050066;28;20818;-50
2023/09/23 00:51:00;;;;;;;3.23;2.83;;;13.70;99.90;;;;;;5050144;28;21078;-51
2023/09/23 00:53:28;;;;;;;3.97;3.27;;;13.70;99.90;;;;;;5048292;28;20967;-51
2023/09/23 00:55:55;;;;;;;5.57;2.80;;;13.70;99.90;;;;;;5049842;28;20899;-51
2023/09/23 00:58:24;;;;;;;7.33;3.23;;;13.70;99.90;;;;;;5050878;28;20472;-50
2023/09/23 01:00:54;;;;;;;7.90;3.03;;;13.70;99.90;;;;;;5049541;28;20527;-51
2023/09/23 01:03:21;;;;;;;4.97;2.63;;;13.70;99.90;;;;;;5046861;28;20837;-51
2023/09/23 01:05:50;;;;;;;2.47;2.27;;;13.70;99.90;;;;;;5046143;28;20863;-50
2023/09/23 01:08:19;;;;;;;5.60;3.20;;;13.60;99.90;;;;;;5050581;28;20450;-50
2023/09/23 01:10:48;;;;;;;3.53;2.70;;;13.60;99.90;;;;;;5047999;28;20485;-50
2023/09/23 01:13:19;;;;;;;4.60;3.00;;;13.60;99.90;;;;;;5051634;28;20540;-50
2023/09/23 01:15:46;;;;;;;4.07;3.27;;;13.50;99.90;;;;;;5054042;28;20485;-51
2023/09/23 01:18:14;;;;;;;4.00;2.73;;;13.40;99.90;;;;;;5046122;28;20462;-50
2023/09/23 01:20:42;;;;;;;2.93;2.60;;;13.40;99.90;;;;;;5053084;28;20442;-51
2023/09/23 01:23:11;;;;;;;4.13;2.60;;;13.40;99.90;;;;;;5052608;28;20454;-50
2023/09/23 01:25:38;;;;;;;5.60;3.00;;;13.40;99.90;;;;;;5056970;28;20470;-51
2023/09/23 01:28:12;;;;;;;5.17;2.53;;;13.30;99.90;;;;;;5060261;28;20523;-50
2023/09/23 01:30:40;;;;;;;10.93;2.70;;;13.30;99.90;;;;;;5059550;28;20485;-52
2023/09/23 01:33:07;;;;;;;4.47;2.40;;;13.20;99.90;;;;;;5062588;28;20473;-51
2023/09/23 01:35:33;;;;;;;4.00;2.70;;;13.20;99.90;;;;;;5058894;28;20900;-50
2023/09/23 01:38:04;;;;;;;3.97;2.53;;;13.10;99.90;;;;;;5049705;28;20473;-50
2023/09/23 01:40:33;;;;;;;2.80;2.23;;;13.10;99.90;;;;;;5054010;28;20450;-49
2023/09/23 01:43:01;;;;;;;3.97;3.00;;;13.00;99.90;;;;;;5048586;28;20460;-50
2023/09/23 01:45:28;;;;;;;3.00;2.73;;;13.00;99.90;;;;;;5046618;28;20454;-50
2023/09/23 01:47:56;;;;;;;8.80;2.77;;;13.00;99.90;;;;;;5053461;28;20457;-50
2023/09/23 01:50:24;;;;;;;3.83;2.70;;;12.90;99.90;;;;;;5052699;28;20564;-50
2023/09/23 01:52:51;;;;;;;6.60;3.27;;;12.90;99.90;;;;;;5053207;28;20516;-50
2023/09/23 01:55:17;;;;;;;2.87;2.40;;;12.90;99.90;;;;;;5053570;28;20462;-50
2023/09/23 01:57:47;;;;;;;2.33;2.13;;;12.90;99.90;;;;;;5050994;28;20481;-49
2023/09/23 02:00:22;;;;;;;3.17;2.43;;;12.80;99.90;;;;;;5052961;28;20457;-50
2023/09/23 02:02:49;;;;;;;3.93;2.83;;;12.80;99.90;;;;;;5051643;28;20560;-50
2023/09/23 02:05:18;;;;;;;2.90;2.40;;;12.80;99.90;;;;;;5053267;28;20465;-50
2023/09/23 02:07:47;;;;;;;5.17;2.40;;;12.70;99.90;;;;;;5051374;28;20454;-50
2023/09/23 02:10:15;;;;;;;2.60;2.13;;;12.70;99.90;;;;;;5054444;28;20524;-50
2023/09/23 02:12:42;;;;;;;8.67;2.43;;;12.70;99.90;;;;;;5053673;28;20831;-50
2023/09/23 02:15:10;;;;;;;4.63;2.37;;;12.70;99.90;;;;;;5055234;28;20519;-51
2023/09/23 02:17:37;;;;;;;3.10;2.43;;;12.70;99.90;;;;;;5055453;28;20470;-51
2023/09/23 02:20:09;;;;;;;4.03;2.17;;;12.70;99.90;;;;;;5052358;28;20520;-49
2023/09/23 02:22:37;;;;;;;2.40;2.20;;;12.70;99.90;;;;;;5059044;28;20837;-52
2023/09/23 02:25:07;;;;;;;3.03;2.10;;;12.60;99.90;;;;;;5067630;28;20993;-52
2023/09/23 02:27:34;;;;;;;2.43;2.23;;;12.60;99.90;;;;;;5065554;28;20489;-51
2023/09/23 02:30:05;;;;;;;2.53;1.90;;;12.60;99.90;;;;;;5060842;28;20481;-50
2023/09/23 02:32:34;;;;;;;1.97;1.87;;;12.60;99.90;;;;;;5060198;28;20462;-52
2023/09/23 02:35:01;;;;;;;2.03;1.93;;;12.60;99.90;;;;;;5062677;28;20462;-50
2023/09/23 02:37:27;;;;;;;9.57;2.20;;;12.60;99.90;;;;;;5055920;28;20561;-51
2023/09/23 02:39:54;;;;;;;1.90;1.60;;;12.60;99.90;;;;;;5051916;28;20507;-51
2023/09/23 02:42:21;;;;;;;1.97;1.87;;;12.60;99.90;;;;;;5049515;28;20458;-50
2023/09/23 02:44:48;;;;;;;6.00;1.70;;;12.60;99.90;;;;;;5052230;28;20468;-49
2023/09/23 02:47:16;;;;;;;4.37;1.90;;;12.60;99.90;;;;;;5048580;28;20530;-49
2023/09/23 02:49:45;;;;;;;2.27;2.07;;;12.60;99.90;;;;;;5048343;28;20509;-50
2023/09/23 02:52:12;;;;;;;1.67;1.57;;;12.70;99.90;;;;;;5046247;28;20515;-50
2023/09/23 02:54:39;;;;;;;1.77;1.67;;;12.70;99.90;;;;;;5049888;28;20465;-50
2023/09/23 02:57:08;;;;;;;4.27;1.80;;;12.80;99.90;;;;;;5050706;28;20521;-50
2023/09/23 02:59:41;;;;;;;4.40;1.90;;;12.80;99.90;;;;;;5052383;28;20507;-50
2023/09/23 03:02:08;;;;;;;3.17;1.70;;;12.80;99.90;;;;;;5047970;28;20469;-50
2023/09/23 03:04:35;;;;;;;2.03;1.93;;;12.80;99.90;;;;;;5048212;28;20488;-51
2023/09/23 03:07:06;;;;;;;3.13;1.73;;;12.90;99.90;;;;;;5049093;28;20493;-50
2023/09/23 03:09:33;;;;;;;4.07;2.00;;;12.90;99.90;;;;;;5047707;28;20545;-51
2023/09/23 03:12:00;;;;;;;2.60;2.33;;;12.90;99.90;;;;;;5048965;28;20498;-52
2023/09/23 03:14:36;;;;;;;2.60;1.97;;;13.00;99.90;;;;;;5051240;28;20454;-51
2023/09/23 03:17:04;;;;;;;3.33;2.23;;;13.00;99.90;;;;;;5048711;28;21017;-50
2023/09/23 03:19:32;;;;;;;22.93;2.13;;;13.10;99.90;;;;;;5049741;28;20476;-50
2023/09/23 03:22:00;;;;;;;2.23;1.97;;;13.10;99.90;;;;;;5051106;28;20460;-51
2023/09/23 03:24:30;;;;;;;2.13;1.83;;;13.10;99.90;;;;;;5051630;28;20449;-50
2023/09/23 03:26:59;;;;;;;2.47;1.63;;;13.10;99.90;;;;;;5049280;28;20515;-50
2023/09/23 03:29:28;;;;;;;4.33;2.37;;;13.10;99.90;;;;;;5051517;28;20450;-50
2023/09/23 03:31:54;;;;;;;2.43;2.07;;;13.10;99.90;;;;;;5050989;28;20459;-51
2023/09/23 03:34:21;;;;;;;2.20;2.00;;;13.10;99.90;;;;;;5049647;28;20548;-50
2023/09/23 03:36:48;;;;;;;2.27;1.90;;;13.10;99.90;;;;;;5049118;28;20492;-50
2023/09/23 03:39:17;;;;;;;2.00;1.80;;;13.10;99.90;;;;;;5049851;28;20458;-50
2023/09/23 03:41:46;;;;;;;3.17;1.87;;;13.20;99.90;;;;;;5050927;28;20485;-51
2023/09/23 03:44:14;;;;;;;2.90;2.10;;;13.20;99.90;;;;;;5049335;28;20828;-50
2023/09/23 03:46:41;;;;;;;1.97;1.80;;;13.20;99.90;;;;;;5048084;28;20832;-51
2023/09/23 03:49:08;;;;;;;4.00;1.90;;;13.20;99.90;;;;;;5049559;28;20943;-50
2023/09/23 03:51:36;;;;;;;2.57;1.63;;;13.20;99.90;;;;;;5049462;28;20482;-51
2023/09/23 03:54:03;;;;;;;3.53;2.00;;;13.20;99.90;;;;;;5050168;28;20472;-50
2023/09/23 03:56:33;;;;;;;1.57;1.47;;;13.30;99.90;;;;;;5043763;28;21041;-50
2023/09/23 03:59:01;;;;;;;3.83;1.43;;;13.30;99.90;;;;;;5050398;28;20458;-51
2023/09/23 04:01:28;;;;;;;2.77;1.80;;;13.30;99.90;;;;;;5049807;28;20454;-50
2023/09/23 04:03:56;;;;;;;1.60;1.47;;;13.30;99.90;;;;;;5050816;28;20507;-51
2023/09/23 04:06:23;;;;;;;1.77;1.43;;;13.30;99.90;;;;;;5060570;22;20576;-53
2023/09/23 04:08:50;;;;;;;3.13;1.67;;;13.30;99.90;;;;;;5027803;28;20668;-52
2023/09/23 04:11:18;;;;;;;1.73;1.50;;;13.30;99.90;;;;;;5030991;28;20536;-53
2023/09/23 04:13:46;;;;;;;1.77;1.53;;;13.30;99.90;;;;;;5026716;28;20458;-52
2023/09/23 04:16:14;;;;;;;4.53;1.40;;;13.30;99.90;;;;;;5029469;28;20602;-53
2023/09/23 04:18:41;;;;;;;2.70;1.37;;;13.30;99.90;;;;;;5029030;28;20463;-52
2023/09/23 04:21:08;;;;;;;1.93;1.23;;;13.30;99.90;;;;;;5028474;28;20459;-52
2023/09/23 04:23:35;;;;;;;1.40;1.30;;;13.40;99.90;;;;;;5027750;28;20967;-52
2023/09/23 04:26:03;;;;;;;1.90;1.63;;;13.40;99.90;;;;;;5024611;28;20892;-53
2023/09/23 04:28:29;;;;;;;2.93;1.50;;;13.40;99.90;;;;;;5027573;28;21023;-53
2023/09/23 04:30:57;;;;;;;2.00;1.90;;;13.30;99.90;;;;;;5030968;28;20536;-53
2023/09/23 04:33:27;;;;;;;1.50;1.40;;;13.30;99.90;;;;;;5028257;28;20470;-50
2023/09/23 04:35:56;;;;;;;4.27;1.30;;;13.30;99.90;;;;;;5030953;28;20553;-51
2023/09/23 04:38:23;;;;;;;4.67;1.47;;;13.30;99.90;;;;;;5027476;28;20839;-52
2023/09/23 04:40:50;;;;;;;2.80;1.53;;;13.30;99.90;;;;;;5029840;28;20463;-53
2023/09/23 04:43:17;;;;;;;1.43;1.33;;;13.30;99.90;;;;;;5029811;28;21017;-53
2023/09/23 04:45:44;;;;;;;2.40;1.30;;;13.30;99.90;;;;;;5030941;28;20505;-50
2023/09/23 04:48:10;;;;;;;1.57;1.47;;;13.30;99.90;;;;;;5029170;28;20517;-52
2023/09/23 04:50:39;;;;;;;2.43;1.50;;;13.30;99.90;;;;;;5032211;28;20568;-53
2023/09/23 04:53:07;;;;;;;2.50;1.50;;;13.20;99.90;;;;;;5033633;28;20492;-50
2023/09/23 04:55:33;;;;;;;2.23;1.87;;;13.20;99.90;;;;;;5034729;28;20454;-52
2023/09/23 04:58:00;;;;;;;2.43;1.80;;;13.20;99.90;;;;;;5029835;28;20489;-53
2023/09/23 05:00:32;;;;;;;4.37;2.70;;;13.20;99.90;;;;;;5024362;28;20525;-52
2023/09/23 05:02:58;;;;;;;1.93;1.80;;;13.20;99.90;;;;;;5023112;28;20490;-53
2023/09/23 05:05:26;;;;;;;4.90;2.40;;;13.20;99.90;;;;;;5031446;28;20458;-53
2023/09/23 05:07:54;;;;;;;2.03;1.83;;;13.20;99.90;;;;;;5032874;28;20490;-52
2023/09/23 05:10:21;;;;;;;2.53;1.87;;;13.10;99.90;;;;;;5032639;28;20868;-52
2023/09/23 05:12:47;;;;;;;2.70;1.53;;;13.10;99.90;;;;;;5027994;28;20553;-51
2023/09/23 05:15:15;;;;;;;3.37;1.63;;;13.10;99.90;;;;;;5033017;28;20458;-53
2023/09/23 05:17:43;;;;;;;3.63;1.83;;;13.10;99.90;;;;;;5035037;28;20988;-52
2023/09/23 05:20:14;;;;;;;2.20;1.50;;;13.00;99.90;;;;;;5031446;28;20472;-52
2023/09/23 05:22:41;;;;;;;2.53;1.63;;;13.10;99.90;;;;;;5032957;28;20876;-53
2023/09/23 05:25:11;;;;;;;1.70;1.60;;;13.00;99.90;;;;;;5032567;28;20504;-52
2023/09/23 05:27:38;;;;;;;2.83;2.13;;;13.00;99.90;;;;;;5026865;28;20475;-52
2023/09/23 05:30:08;;;;;;;4.83;1.83;;;13.00;99.90;;;;;;5034441;28;20546;-50
2023/09/23 05:32:35;;;;;;;1.90;1.73;;;13.00;99.90;;;;;;5026198;28;20478;-51
2023/09/23 05:35:01;;;;;;;1.37;1.27;;;12.90;99.90;;;;;;5030137;28;21013;-51
2023/09/23 05:37:28;;;;;;;3.00;2.00;;;12.90;99.90;;;;;;5030137;28;21105;-52
2023/09/23 05:39:54;;;;;;;2.03;1.37;;;12.90;99.90;;;;;;5033941;28;20868;-53
2023/09/23 05:42:24;;;;;;;10.17;1.37;;;13.00;99.90;;;;;;5033657;28;20932;-51
2023/09/23 05:44:51;;;;;;;2.43;1.30;;;13.00;99.90;;;;;;5032525;28;20469;-51
2023/09/23 05:47:17;;;;;;;2.70;1.30;;;13.10;83.20;;;;;;5031115;28;20479;-53
2023/09/23 05:49:44;;;;;;;5.80;1.87;;;13.10;87.20;;;;;;5033054;28;20459;-52
2023/09/23 05:52:14;;;;;;;3.23;2.40;;;13.30;27.90;;;;;;5028149;28;20483;-54
2023/09/23 05:54:41;;;;;;;3.00;2.00;;;13.40;32.90;;;;;;5029580;28;20486;-52
2023/09/23 05:57:07;;;;;;;3.20;1.90;;;13.40;36.70;;;;;;5032893;28;20506;-52
2023/09/23 05:59:35;;;;;;;3.80;2.30;;;13.30;37.80;;;;;;5030965;28;20466;-52
2023/09/23 06:02:06;;;;;;;2.47;1.70;;;13.30;41.60;;;;;;5031578;28;20512;-51
2023/09/23 06:04:32;;;;;;;4.20;2.40;;;13.30;50.70;;;;;;5032476;28;20459;-53
2023/09/23 06:06:59;;;;;;;5.00;2.13;;;13.30;50.00;;;;;;5032374;28;20494;-52
2023/09/23 06:09:26;;;;;;;2.60;1.97;;;13.30;49.50;;;;;;5029512;28;20517;-51
2023/09/23 06:11:54;;;;;;;2.00;1.80;;;13.30;49.90;;;;;;5031215;28;20513;-52
2023/09/23 06:14:21;;;;;;;4.40;2.17;;;13.40;48.60;;;;;;5031963;28;20490;-52
2023/09/23 06:16:49;;;;;;;3.60;1.83;;;13.30;50.20;;;;;;5031769;28;20487;-52
2023/09/23 06:19:15;;;;;;;5.47;2.20;;;13.30;49.30;;;;;;5032966;28;20504;-52
2023/09/23 06:21:42;;;;;;;5.30;2.73;;;13.40;52.50;;;;;;5032347;28;20443;-52
2023/09/23 06:24:10;;;;;;;3.83;2.00;;;13.40;56.10;;;;;;5031573;28;20469;-52
2023/09/23 06:26:37;;;;;;;3.53;2.33;;;13.50;62.00;;;;;;5026299;28;20483;-52
2023/09/23 06:29:04;;;;;;;2.03;1.83;;;13.50;65.20;;;;;;5032193;28;20809;-52
2023/09/23 06:31:31;;;;;;;3.27;2.03;;;13.60;70.90;;;;;;5032685;28;20556;-51
2023/09/23 06:33:59;;;;;;;3.47;2.07;;;13.70;71.50;;;;;;5032068;28;20516;-52
2023/09/23 06:36:25;;;;;;;2.03;1.80;;;13.80;78.40;;;;;;5031076;28;20475;-53
2023/09/23 06:38:52;;;;;;;3.07;2.20;;;13.80;77.30;;;;;;5030550;28;20463;-52
2023/09/23 06:41:19;;;;;;;4.17;2.70;;;13.90;91.10;;;;;;5027159;28;20489;-53
2023/09/23 06:43:45;;;;;;;4.00;2.23;;;13.90;87.20;;;;;;5028527;28;20490;-53
2023/09/23 06:46:12;;;;;;;3.00;2.23;;;13.90;89.60;;;;;;5031374;28;20628;-53
2023/09/23 06:48:39;;;;;;;21.33;2.40;;;14.00;84.40;;;;;;5029237;28;20465;-52
2023/09/23 06:51:08;;;;;;;4.50;1.90;;;13.90;97.90;;;;;;5030064;28;20479;-53
2023/09/23 06:53:35;;;;;;;3.47;2.20;;;14.00;93.60;;;;;;5028982;28;20478;-52
2023/09/23 06:56:02;;;;;;;2.70;1.50;;;14.10;97.30;;;;;;5031585;28;20591;-53
2023/09/23 06:58:28;;;;;;;1.50;1.30;;;14.10;99.90;;;;;;5029294;28;21018;-52
2023/09/23 07:00:55;;;;;;;1.57;1.30;;;14.20;99.90;;;;;;5027849;28;20463;-54
2023/09/23 07:03:22;;;;;;;2.27;1.23;;;14.20;99.90;;;;;;5028188;28;20560;-51
2023/09/23 07:05:48;;;;;;;1.27;1.17;;;14.20;99.90;;;;;;5028575;28;20494;-51
2023/09/23 07:08:16;;;;;;;4.93;1.37;;;14.20;99.90;;;;;;5029584;28;20482;-52
2023/09/23 07:10:43;;;;;;;6.90;1.13;;;14.30;99.90;;;;;;5024032;28;20462;-52
2023/09/23 07:13:09;;;;;;;4.43;1.43;;;14.40;99.90;;;;;;5024103;28;20483;-52
2023/09/23 07:15:37;;;;;;;4.53;1.30;;;14.40;99.90;;;;;;5029931;28;20458;-52
2023/09/23 07:18:05;;;;;;;1.30;1.00;;;14.40;99.90;;;;;;5026812;28;20490;-51
2023/09/23 07:20:32;;;;;;;3.57;1.57;;;14.40;99.90;;;;;;5023829;28;20963;-52
2023/09/23 07:22:59;;;;;;;1.53;1.17;;;14.40;99.90;;;;;;5028078;28;20462;-51
2023/09/23 07:25:27;;;;;;;11.33;1.13;;;14.50;99.90;;;;;;5028040;28;20817;-54
2023/09/23 07:27:54;;;;;;;3.10;1.30;;;14.70;99.90;;;;;;5028109;28;20488;-53
2023/09/23 07:30:21;;;;;;;1.40;0.97;;;14.70;99.90;;;;;;5027301;28;20968;-51
2023/09/23 07:32:47;;;;;;;2.70;1.20;;;14.70;99.90;;;;;;5030836;28;20482;-53
2023/09/23 07:35:14;;;;;;;1.97;1.20;;;14.70;99.90;;;;;;5029567;28;20463;-54
2023/09/23 07:37:41;;;;;;;7.73;1.23;;;14.70;99.90;;;;;;5026743;28;20510;-52
2023/09/23 07:40:09;;;;;;;1.10;1.00;;;14.60;99.90;;;;;;5030401;28;20890;-51
2023/09/23 07:42:37;;;;;;;4.40;0.93;;;14.70;99.90;;;;;;5031945;28;20864;-53
2023/09/23 07:45:04;;;;;;;1.30;1.20;;;14.70;99.90;;;;;;5030321;28;20544;-53
2023/09/23 07:47:31;;;;;;;1.87;1.10;;;14.90;99.90;;;;;;5029941;28;20540;-53
2023/09/23 07:49:58;;;;;;;4.83;1.20;;;14.90;99.90;;;;;;5030781;28;20549;-51
2023/09/23 07:52:25;;;;;;;1.70;1.10;;;15.00;99.90;;;;;;5027255;28;20479;-54
2023/09/23 07:54:52;;;;;;;5.07;1.10;;;15.10;99.90;;;;;;5030152;28;20521;-52
2023/09/23 07:57:18;;;;;;;4.60;0.90;;;15.10;99.90;;;;;;5025035;28;20542;-53
2023/09/23 07:59:46;;;;;;;2.10;0.90;;;15.20;99.90;;;;;;5031301;28;20443;-53
2023/09/23 08:02:13;;;;;;;3.83;1.07;;;15.00;99.90;;;;;;5023209;28;20541;-54
2023/09/23 08:04:39;;;;;;;4.17;1.20;;;15.10;99.90;;;;;;5029585;28;20463;-51
2023/09/23 08:07:06;;;;;;;2.03;1.70;;;15.10;99.90;;;;;;5028914;28;20490;-52
2023/09/23 08:09:32;;;;;;;1.93;1.77;;;15.10;99.90;;;;;;5026672;28;20466;-52
2023/09/23 08:11:59;;;;;;;9.07;6.20;;;15.30;99.90;;;;;;5031387;28;20518;-51
2023/09/23 08:14:27;;;;;;;50.20;27.90;;;15.40;99.90;;;;;;5029531;28;20975;-52
2023/09/23 08:16:55;;;;;;;7.03;5.33;;;15.50;99.90;;;;;;5028608;28;20979;-52
2023/09/23 08:19:23;;;;;;;9.70;6.80;;;15.60;99.90;;;;;;5023509;28;21009;-52
2023/09/23 08:21:49;;;;;;;6.40;3.20;;;15.70;99.90;;;;;;5028773;28;20455;-52
2023/09/23 08:24:16;;;;;;;12.77;4.03;;;15.80;99.90;;;;;;5034923;28;20459;-53
2023/09/23 08:26:43;;;;;;;1.40;1.07;;;15.80;99.90;;;;;;5026377;28;21000;-52
2023/09/23 08:29:09;;;;;;;3.63;1.43;;;15.80;99.90;;;;;;5030820;28;20450;-52
2023/09/23 08:31:36;;;;;;;3.53;1.70;;;15.70;99.90;;;;;;5032406;28;20478;-52
2023/09/23 08:34:09;;;;;;;1.53;1.37;;;15.80;99.90;;;;;;5031471;28;20472;-52
2023/09/23 08:36:35;;;;;;;2.97;2.40;;;15.80;99.90;;;;;;5030259;28;20479;-52
2023/09/23 08:39:02;;;;;;;1.60;1.50;;;15.80;99.90;;;;;;5028068;28;22573;-52
2023/09/23 08:41:31;;;;;;;2.20;1.63;;;15.80;99.90;;;;;;5033315;28;20451;-52
2023/09/23 08:44:02;;;;;;;1.77;1.67;;;15.80;99.90;;;;;;5028497;28;21316;-52
2023/09/23 08:46:30;;;;;;;1.87;1.70;;;16.00;99.90;;;;;;5029854;28;20473;-51
2023/09/23 08:48:59;;;;;;;1.40;1.30;;;15.90;82.00;;;;;;5029369;28;20497;-52
2023/09/23 08:51:27;;;;;;;1.60;1.50;;;16.20;99.90;;;;;;5032700;28;20576;-52
2023/09/23 08:53:55;;;;;;;2.83;1.93;;;16.20;99.90;;;;;;5030771;28;20520;-51
2023/09/23 08:56:22;;;;;;;3.43;1.30;;;16.30;99.90;;;;;;5027527;28;20479;-52
2023/09/23 08:58:49;;;;;;;1.50;1.40;;;16.40;83.10;;;;;;5022641;28;20466;-52
2023/09/23 09:01:16;;;;;;;1.43;1.33;;;17.00;38.30;;;;;;5027701;28;21318;-52
2023/09/23 09:03:45;;;;;;;1.30;1.20;;;17.20;38.00;;;;;;5032444;28;20534;-52
2023/09/23 09:06:18;;;;;;;1.90;1.40;;;17.00;55.10;;;;;;5030518;28;20937;-52
2023/09/23 09:08:46;;;;;;;4.93;1.23;;;16.70;60.40;;;;;;5029635;28;20936;-52
2023/09/23 09:11:21;;;;;;;2.63;1.50;;;16.50;57.70;;;;;;5030146;28;20468;-52
2023/09/23 09:13:49;;;;;;;1.37;1.20;;;16.40;43.10;;;;;;5031549;28;20520;-53
2023/09/23 09:16:16;;;;;;;1.87;1.53;;;16.20;44.90;;;;;;5029847;28;20478;-52
2023/09/23 09:18:42;;;;;;;1.93;1.50;;;16.10;43.20;;;;;;5027570;28;20458;-52
2023/09/23 09:21:09;;;;;;;2.17;1.70;;;15.90;34.70;;;;;;5024001;28;20459;-52
2023/09/23 09:23:38;;;;;;;1.70;1.40;;;16.10;31.50;;;;;;5026420;28;20936;-52
2023/09/23 09:26:06;;;;;;;1.30;1.20;;;16.20;33.30;;;;;;5024297;28;20993;-51
2023/09/23 09:28:33;;;;;;;4.60;1.43;;;16.10;37.20;;;;;;5031980;28;20458;-51
2023/09/23 09:30:59;;;;;;;2.73;1.60;;;16.10;31.10;;;;;;5032662;28;20473;-52
2023/09/23 09:33:28;;;;;;;14.17;1.40;;;16.30;38.50;;;;;;5031289;28;20569;-52
2023/09/23 09:35:56;;;;;;;1.77;1.67;;;16.70;58.60;;;;;;5027505;28;20470;-51
2023/09/23 09:38:24;;;;;;;3.37;1.40;;;16.80;53.60;;;;;;5028033;28;20544;-52
2023/09/23 09:40:52;;;;;;;1.87;1.17;;;16.60;64.30;;;;;;5031483;28;20455;-51
2023/09/23 09:43:21;;;;;;;1.40;1.30;;;16.50;67.80;;;;;;5034340;28;20443;-51
2023/09/23 09:45:49;;;;;;;1.33;1.23;;;16.40;46.00;;;;;;5026031;28;20556;-52
2023/09/23 09:48:18;;;;;;;1.63;1.53;;;16.10;37.30;;;;;;5032864;28;20454;-52
2023/09/23 09:50:46;;;;;;;1.47;1.47;;;16.10;45.40;;;;;;5033083;28;20466;-52
2023/09/23 09:53:13;;;;;;;1.27;1.17;;;16.50;50.80;;;;;;5030217;28;20863;-52
2023/09/23 09:55:41;;;;;;;1.57;1.50;;;16.90;61.40;;;;;;5031595;28;20459;-52
2023/09/23 09:58:07;;;;;;;1.90;1.50;;;17.00;76.10;;;;;;5032669;28;20475;-51
2023/09/23 10:00:43;;;;;;;2.50;1.60;;;17.30;70.30;;;;;;5025124;28;20968;-52
2023/09/23 10:03:12;;;;;;;1.17;1.10;;;17.50;82.00;;;;;;5033298;28;20446;-51
2023/09/23 10:05:46;;;;;;;1.53;1.20;;;17.40;75.90;;;;;;5029867;28;20459;-53
2023/09/23 10:08:13;;;;;;;1.30;1.20;;;17.30;72.80;;;;;;5031118;28;20550;-52
2023/09/23 10:10:47;;;;;;;1.77;1.30;;;18.00;83.50;;;;;;5030205;28;20466;-52
2023/09/23 10:13:14;;;;;;;1.77;1.67;;;18.20;99.90;;;;;;5030225;28;20490;-52
2023/09/23 10:15:43;;;;;;;2.13;1.57;;;17.90;99.90;;;;;;5025274;28;20462;-52
2023/09/23 10:18:11;;;;;;;3.13;1.47;;;17.50;99.90;;;;;;5027942;28;20538;-52
2023/09/23 10:20:41;;;;;;;3.70;1.40;;;17.20;99.90;;;;;;5030344;28;20466;-52
2023/09/23 10:23:08;;;;;;;2.10;1.20;;;16.90;96.00;;;;;;5027275;28;20936;-52
2023/09/23 10:25:38;;;;;;;4.03;1.60;;;16.60;77.60;;;;;;5031434;28;20878;-53
2023/09/23 10:28:06;;;;;;;2.07;1.50;;;16.60;79.00;;;;;;5025542;28;20443;-53
2023/09/23 10:30:35;;;;;;;4.30;1.50;;;17.60;99.90;;;;;;5030981;28;20490;-53
2023/09/23 10:33:04;;;;;;;1.53;1.43;;;17.70;99.90;;;;;;5030707;28;20497;-53
2023/09/23 10:35:31;;;;;;;1.73;1.63;;;18.00;99.90;;;;;;5030952;28;20471;-53
2023/09/23 10:37:58;;;;;;;1.50;1.40;;;18.40;99.90;;;;;;5022723;28;20522;-52
2023/09/23 10:40:24;;;;;;;1.50;1.40;;;18.70;99.90;;;;;;5031702;28;20463;-53
2023/09/23 10:42:51;;;;;;;1.13;1.10;;;18.20;99.90;;;;;;5029474;28;20518;-53
2023/09/23 10:45:20;;;;;;;1.47;1.37;;;18.00;99.90;;;;;;5029706;28;20516;-52
2023/09/23 10:47:46;;;;;;;2.03;1.40;;;17.50;99.90;;;;;;5032400;28;20470;-53
2023/09/23 10:50:15;;;;;;;7.70;1.03;;;17.70;99.90;;;;;;5030309;28;20536;-53
2023/09/23 10:52:42;;;;;;;1.30;1.20;;;17.70;99.90;;;;;;5029967;28;20482;-52
2023/09/23 10:55:10;;;;;;;1.73;1.40;;;17.90;99.90;;;;;;5030590;28;20495;-53
2023/09/23 10:57:37;;;;;;;2.30;1.07;;;17.70;99.90;;;;;;5030239;28;20491;-52
2023/09/23 11:00:16;;;;;;;4.77;0.90;;;17.60;99.90;;;;;;5026979;28;20557;-51
2023/09/23 11:02:44;;;;;;;3.53;1.00;;;17.40;99.90;;;;;;5028572;28;20458;-51
2023/09/23 11:05:12;;;;;;;1.40;1.10;;;17.10;99.90;;;;;;5026334;28;20470;-51
2023/09/23 11:07:42;;;;;;;2.40;1.10;;;17.00;99.90;;;;;;5026623;28;20497;-51
2023/09/23 11:10:12;;;;;;;3.73;1.00;;;17.00;99.90;;;;;;5027332;28;20455;-51
2023/09/23 11:12:39;;;;;;;7.83;1.37;;;17.10;99.90;;;;;;5025043;28;20973;-51
2023/09/23 11:15:09;;;;;;;1.50;0.90;;;17.30;99.90;;;;;;5029606;28;20474;-52
2023/09/23 11:17:36;;;;;;;3.07;0.97;;;17.30;99.90;;;;;;5028558;28;20479;-52
2023/09/23 11:20:04;;;;;;;1.27;1.10;;;17.20;99.90;;;;;;5027634;28;20459;-51
2023/09/23 11:22:31;;;;;;;1.40;0.87;;;17.10;99.90;;;;;;5022075;28;20551;-52
2023/09/23 11:24:59;;;;;;;1.20;0.90;;;17.00;99.90;;;;;;5028077;28;20972;-52
2023/09/23 11:27:27;;;;;;;1.43;1.23;;;16.90;99.90;;;;;;5029189;28;20863;-51
2023/09/23 11:29:55;;;;;;;2.30;1.20;;;16.80;99.90;;;;;;5030224;28;20462;-52
2023/09/23 11:32:24;;;;;;;3.13;1.10;;;16.80;99.90;;;;;;5028351;28;20518;-52
2023/09/23 11:34:52;;;;;;;2.70;2.17;;;16.80;99.90;;;;;;5028175;28;20526;-51
2023/09/23 11:37:20;;;;;;;1.53;1.27;;;16.80;99.90;;;;;;5027638;28;21065;-52
2023/09/23 11:39:47;;;;;;;1.63;1.53;;;16.80;99.90;;;;;;5029296;28;20469;-51
2023/09/23 11:42:14;;;;;;;0.90;0.80;;;16.80;99.90;;;;;;5030228;28;20463;-51
2023/09/23 11:44:42;;;;;;;1.87;1.47;;;16.80;99.90;;;;;;5027423;28;20458;-51
2023/09/23 11:47:09;;;;;;;2.60;1.10;;;16.80;99.90;;;;;;5030858;28;20540;-51
2023/09/23 11:49:36;;;;;;;1.10;1.00;;;16.70;99.90;;;;;;5028495;28;20471;-51
2023/09/23 11:52:04;;;;;;;1.60;1.10;;;16.70;99.90;;;;;;5025945;28;20487;-50
2023/09/23 11:54:30;;;;;;;4.50;1.60;;;16.50;99.90;;;;;;5030431;28;20545;-50
2023/09/23 11:56:57;;;;;;;1.53;1.00;;;16.50;99.90;;;;;;5032225;28;20486;-51
2023/09/23 11:59:25;;;;;;;1.57;1.10;;;16.40;99.90;;;;;;5028734;28;20467;-51
2023/09/23 12:01:51;;;;;;;1.43;1.30;;;16.30;99.30;;;;;;5029527;28;20513;-50
2023/09/23 12:04:18;;;;;;;1.07;0.70;;;16.40;94.70;;;;;;5028568;28;20455;-51
2023/09/23 12:06:45;;;;;;;1.40;0.90;;;16.30;99.90;;;;;;5028845;28;20572;-51
2023/09/23 12:09:12;;;;;;;2.33;0.70;;;16.20;99.90;;;;;;5028036;28;20458;-51
2023/09/23 12:11:39;;;;;;;1.10;0.97;;;16.30;99.90;;;;;;5027722;28;21058;-50
2023/09/23 12:14:06;;;;;;;2.90;0.83;;;16.30;99.90;;;;;;5029648;28;20482;-51
2023/09/23 12:16:34;;;;;;;1.10;1.00;;;16.50;99.90;;;;;;5030308;28;20477;-50
2023/09/23 12:19:00;;;;;;;3.03;1.10;;;16.60;99.90;;;;;;5028919;28;20495;-50
2023/09/23 12:21:27;;;;;;;1.00;0.90;;;16.60;99.90;;;;;;5026945;28;20458;-52
2023/09/23 12:23:59;;;;;;;1.40;1.30;;;16.70;99.90;;;;;;5021963;28;21016;-51
2023/09/23 12:26:25;;;;;;;1.27;1.00;;;16.70;99.90;;;;;;5026635;28;20513;-50
2023/09/23 12:28:52;;;;;;;1.00;0.93;;;16.60;99.90;;;;;;5025388;28;20458;-50
2023/09/23 12:31:19;;;;;;;2.60;0.90;;;16.60;99.90;;;;;;5026953;28;21020;-50
2023/09/23 12:33:47;;;;;;;0.70;0.70;;;16.60;99.90;;;;;;5025989;28;20490;-51
2023/09/23 12:36:13;;;;;;;1.50;0.80;;;16.50;99.90;;;;;;5026452;28;20482;-50
2023/09/23 12:38:40;;;;;;;0.80;0.73;;;16.50;99.90;;;;;;5022602;28;20525;-50
2023/09/23 12:41:06;;;;;;;0.90;0.90;;;17.70;99.90;;;;;;5028615;28;20490;-52
2023/09/23 12:43:33;;;;;;;2.13;0.77;;;18.10;99.90;;;;;;5021422;28;20521;-52
2023/09/23 12:45:59;;;;;;;1.13;0.90;;;18.30;99.90;;;;;;5026104;28;20514;-52
2023/09/23 12:48:27;;;;;;;0.70;0.70;;;19.60;99.90;;;;;;5029401;28;20486;-52